Catàleg de serveis del Meteocat

Dades de l'estació automàtica Batea

?
?
Resum diari 21:00 TU
Dades diàries de l'estació meteorològica
Temperatura mitjana 3.7 °C
Temperatura màxima 7.0 °C 13:48 TU
Temperatura mínima 0.5 °C 8:01 TU
Humitat relativa mitjana 93%
Precipitació acumulada 0.0 mm
Ratxa màxima del vent (2 m) 21.2 km/h - 248º 14:08 TU
Irradiació solar global 3.7 MJ/m2

El tram horari està expressat en Temps Universal (TU). Cal sumar una hora en horari d'hivern i dues en horari d'estiu per passar a l'hora oficial.

Batea

Metadades estació meteorol´gica
Municipi Batea
Comarca Terra Alta
Altitud 382 m
Data alta 23.12.1999
Estat actual Operativa
Dades de període
Període
TU
TM
°C
TX
°C
TN
°C
HRM
%
PPT
mm
VVM (2 m)
km/h
DVM (2 m)
graus
VVX (2 m)
km/h
RS
W/m2
00:00 - 00:30 3.7 3.8 3.7 100 0.0 4.3 266 10.1 0
00:30 - 01:00 3.5 3.7 3.4 100 0.0 3.6 250 10.8 0
01:00 - 01:30 3.2 3.4 3.1 100 0.0 4.3 246 13.3 0
01:30 - 02:00 3.0 3.1 3.0 100 0.0 3.2 260 9.4 0
02:00 - 02:30 3.1 3.1 3.0 100 0.0 1.8 287 6.8 0
02:30 - 03:00 2.9 3.1 2.7 100 0.0 1.8 303 6.5 0
03:00 - 03:30 2.2 2.6 1.7 100 0.0 2.2 284 6.1 0
03:30 - 04:00 1.5 1.7 1.3 100 0.0 1.4 278 4.0 0
04:00 - 04:30 1.0 1.3 0.9 100 0.0 1.8 293 3.6 0
04:30 - 05:00 1.0 1.1 0.9 100 0.0 2.5 287 4.0 0
05:00 - 05:30 1.0 1.1 0.9 100 0.0 2.5 281 5.4 0
05:30 - 06:00 1.3 1.4 1.2 100 0.0 2.9 309 7.9 0
06:00 - 06:30 1.2 1.3 1.2 100 0.0 2.5 309 6.8 0
06:30 - 07:00 1.2 1.2 1.1 100 0.0 2.5 317 6.5 0
07:00 - 07:30 1.0 1.2 0.9 100 0.0 2.5 299 6.5 2
07:30 - 08:00 0.6 0.9 0.5 100 0.0 2.2 302 6.1 17
08:00 - 08:30 0.8 1.1 0.5 100 0.0 4.0 328 7.9 44
08:30 - 09:00 1.1 1.2 1.0 100 0.0 4.7 327 10.1 89
09:00 - 09:30 1.3 1.5 1.1 100 0.0 5.4 325 10.8 101
09:30 - 10:00 1.8 2.2 1.5 100 0.0 4.3 322 8.3 143
10:00 - 10:30 2.4 2.7 2.0 100 0.0 4.3 324 9.4 178
10:30 - 11:00 2.8 3.0 2.8 100 0.0 5.4 332 9.0 109
11:00 - 11:30 3.1 3.5 2.8 100 0.0 3.6 331 7.9 70
11:30 - 12:00 3.8 4.0 3.5 100 0.0 5.0 329 10.1 106
12:00 - 12:30 3.8 4.0 3.7 100 0.0 5.8 322 12.6 104
12:30 - 13:00 4.1 4.5 3.8 99 0.0 3.6 310 10.8 112
13:00 - 13:30 4.9 5.9 4.5 95 0.0 5.0 281 13.7 230
13:30 - 14:00 6.5 7.0 6.1 89 0.0 7.2 289 20.5 315
14:00 - 14:30 6.6 6.6 6.4 85 0.0 7.6 304 21.2 158
14:30 - 15:00 6.7 6.8 6.6 84 0.0 6.8 320 15.5 138
15:00 - 15:30 6.6 6.8 6.5 84 0.0 7.2 328 15.1 75
15:30 - 16:00 6.6 6.6 6.5 85 0.0 4.7 328 10.8 56
16:00 - 16:30 6.1 6.5 5.6 87 0.0 4.3 332 9.0 27
16:30 - 17:00 5.3 5.6 5.0 89 0.0 2.9 318 6.5 7
17:00 - 17:30 4.8 5.0 4.8 92 0.0 2.2 315 4.0 0
17:30 - 18:00 4.7 4.8 4.6 92 0.0 2.2 302 5.0 0
18:00 - 18:30 5.5 6.3 4.5 85 0.0 2.2 275 7.2 0
18:30 - 19:00 6.4 6.5 6.2 76 0.0 3.6 235 13.7 0
19:00 - 19:30 6.4 6.5 6.4 74 0.0 3.6 240 11.2 0
19:30 - 20:00 6.4 6.5 6.3 72 0.0 4.7 251 13.0 0
20:00 - 20:30 6.3 6.4 6.0 72 0.0 5.4 268 14.4 0
20:30 - 21:00 5.7 6.0 5.5 74 0.0 4.7 288 14.4 0
21:00 - 21:30 5.4 5.6 5.2 76 0.0 4.7 296 13.7 0

Les dades en taronja només han passat un control de qualitat automàtic. Resta pendent la seva validació definitiva.